createdAt,value
2023-02-14T00:01:28.117Z,5.47
2023-02-14T00:04:00.896Z,5.12
2023-02-14T00:06:32.801Z,5.37
2023-02-14T00:09:02.296Z,5.42
2023-02-14T00:11:34.456Z,5.21
2023-02-14T00:14:23.437Z,5.36
2023-02-14T00:16:52.947Z,5.34
2023-02-14T00:19:23.085Z,5.32
2023-02-14T00:21:52.725Z,5.53
2023-02-14T00:24:24.256Z,5.30
2023-02-14T00:26:53.789Z,5.44
2023-02-14T00:29:54.463Z,5.52
2023-02-14T00:32:41.967Z,5.34
2023-02-14T00:35:18.511Z,5.36
2023-02-14T00:37:50.008Z,5.22
2023-02-14T00:41:02.298Z,5.43
2023-02-14T00:43:32.746Z,5.39
2023-02-14T00:46:31.370Z,5.11
2023-02-14T00:49:08.443Z,5.17
2023-02-14T00:51:52.314Z,5.39
2023-02-14T00:55:16.497Z,5.45
2023-02-14T00:57:59.160Z,5.13
2023-02-14T01:00:30.306Z,5.69
2023-02-14T01:03:01.023Z,5.55
2023-02-14T01:05:32.041Z,5.47
2023-02-14T01:08:01.303Z,5.63
2023-02-14T01:10:30.460Z,5.51
2023-02-14T01:13:01.208Z,5.66
2023-02-14T01:15:30.803Z,5.34
2023-02-14T01:18:02.827Z,5.44
2023-02-14T01:20:32.328Z,5.45
2023-02-14T01:23:01.999Z,5.34
2023-02-14T01:25:31.916Z,5.64
2023-02-14T01:28:02.220Z,5.64
2023-02-14T01:30:31.849Z,5.47
2023-02-14T01:33:02.711Z,5.28
2023-02-14T01:35:32.122Z,5.42
2023-02-14T01:38:01.141Z,5.55
2023-02-14T01:40:30.388Z,5.45
2023-02-14T01:42:59.443Z,5.18
2023-02-14T01:45:29.962Z,5.43
2023-02-14T01:47:59.941Z,5.42
2023-02-14T01:50:34.885Z,5.44
2023-02-14T01:53:07.704Z,5.62
2023-02-14T01:55:43.187Z,5.67
2023-02-14T01:58:15.824Z,5.68
2023-02-14T02:01:01.166Z,5.79
2023-02-14T02:03:35.379Z,5.68
2023-02-14T02:06:12.465Z,5.61
2023-02-14T02:08:49.650Z,5.49
2023-02-14T02:11:19.015Z,5.20
2023-02-14T02:13:49.730Z,5.52
2023-02-14T02:16:38.104Z,5.02
2023-02-14T02:19:33.157Z,5.38
2023-02-14T02:22:31.517Z,5.57
2023-02-14T02:25:13.714Z,5.56
2023-02-14T02:28:02.936Z,5.49
2023-02-14T02:31:08.185Z,5.53
2023-02-14T02:34:02.327Z,5.26
2023-02-14T02:36:44.876Z,5.29
2023-02-14T02:39:25.474Z,5.55
2023-02-14T02:42:07.297Z,5.54
2023-02-14T02:44:46.814Z,5.33
2023-02-14T02:47:23.217Z,4.91
2023-02-14T02:50:16.800Z,5.32
2023-02-14T02:53:06.475Z,5.46
2023-02-14T02:56:03.338Z,5.37
2023-02-14T02:58:40.279Z,5.34
2023-02-14T03:01:13.244Z,5.22
2023-02-14T03:04:04.331Z,5.20
2023-02-14T03:06:34.487Z,5.16
2023-02-14T03:09:13.878Z,5.33
2023-02-14T03:11:50.356Z,5.09
2023-02-14T03:14:29.842Z,5.27
2023-02-14T03:17:08.252Z,5.11
2023-02-14T03:20:16.188Z,4.71
2023-02-14T03:22:52.889Z,5.29
2023-02-14T03:25:35.072Z,4.89
2023-02-14T03:28:14.782Z,4.74
2023-02-14T03:30:53.343Z,4.66
2023-02-14T03:33:29.073Z,4.74
2023-02-14T03:36:03.374Z,4.20
2023-02-14T03:38:37.759Z,4.40
2023-02-14T03:41:13.068Z,4.21
2023-02-14T03:43:46.755Z,4.44
2023-02-14T03:46:21.411Z,4.34
2023-02-14T03:48:54.489Z,4.14
2023-02-14T03:51:25.768Z,4.26
2023-02-14T03:53:59.270Z,4.29
2023-02-14T03:56:36.973Z,4.33
2023-02-14T03:59:11.980Z,4.14
2023-02-14T04:01:47.643Z,4.16
2023-02-14T04:04:19.529Z,4.38
2023-02-14T04:06:49.077Z,3.80
2023-02-14T04:09:18.337Z,3.96
2023-02-14T04:11:50.551Z,4.24
2023-02-14T04:14:19.680Z,4.27
2023-02-14T04:17:06.402Z,4.15
2023-02-14T04:19:35.837Z,4.20
2023-02-14T04:22:05.124Z,4.27
2023-02-14T04:24:34.292Z,4.40
2023-02-14T04:27:13.765Z,4.03
2023-02-14T04:29:46.815Z,4.43
2023-02-14T04:32:18.816Z,4.58
2023-02-14T04:34:48.568Z,4.52
2023-02-14T04:37:20.463Z,4.54
2023-02-14T04:39:49.862Z,4.49
2023-02-14T04:42:20.683Z,4.35
2023-02-14T04:44:49.809Z,4.40
2023-02-14T04:47:19.194Z,4.41
2023-02-14T04:49:48.486Z,4.19
2023-02-14T04:52:17.895Z,4.27
2023-02-14T04:54:48.853Z,4.40
2023-02-14T04:57:18.144Z,4.43
2023-02-14T04:59:48.398Z,4.29
2023-02-14T05:02:17.487Z,4.43
2023-02-14T05:04:48.812Z,4.49
2023-02-14T05:07:19.009Z,4.49
2023-02-14T05:09:48.165Z,4.56
2023-02-14T05:12:17.574Z,4.44
2023-02-14T05:14:48.348Z,4.61
2023-02-14T05:17:17.659Z,4.39
2023-02-14T05:19:46.698Z,3.92
2023-02-14T05:22:18.354Z,4.02
2023-02-14T05:24:47.750Z,4.18
2023-02-14T05:27:16.902Z,3.64
2023-02-14T05:29:46.206Z,4.24
2023-02-14T05:32:16.915Z,4.29
2023-02-14T05:34:46.153Z,4.07
2023-02-14T05:37:15.632Z,4.03
2023-02-14T05:39:45.970Z,4.23
2023-02-14T05:42:15.507Z,4.06
2023-02-14T05:44:45.371Z,4.11
2023-02-14T05:47:14.496Z,4.15
2023-02-14T05:49:45.218Z,3.84
2023-02-14T05:52:14.545Z,4.25
2023-02-14T05:54:44.050Z,4.20
2023-02-14T05:57:13.458Z,4.18
2023-02-14T05:59:43.257Z,4.38
2023-02-14T06:02:14.243Z,4.20
2023-02-14T06:04:45.056Z,4.40
2023-02-14T06:07:14.095Z,4.45
2023-02-14T06:09:43.627Z,4.39
2023-02-14T06:12:12.844Z,4.34
2023-02-14T06:14:43.029Z,4.61
2023-02-14T06:17:13.194Z,4.45
2023-02-14T06:19:43.580Z,4.58
2023-02-14T06:22:14.252Z,4.51
2023-02-14T06:24:43.629Z,4.58
2023-02-14T06:27:13.244Z,4.88
2023-02-14T06:29:42.376Z,4.83
2023-02-14T06:32:11.899Z,4.79
2023-02-14T06:34:41.844Z,4.97
2023-02-14T06:37:11.407Z,4.49
2023-02-14T06:39:42.071Z,4.64
2023-02-14T06:42:11.230Z,4.87
2023-02-14T06:44:40.368Z,5.40
2023-02-14T06:47:09.709Z,4.66
2023-02-14T06:49:39.498Z,5.04
2023-02-14T06:52:08.891Z,4.97
2023-02-14T06:54:38.106Z,4.73
2023-02-14T06:57:08.858Z,5.38
2023-02-14T06:59:38.545Z,4.92
2023-02-14T07:02:07.926Z,4.66
2023-02-14T07:04:37.141Z,4.35
2023-02-14T07:07:06.399Z,4.83
2023-02-14T07:09:35.890Z,4.93
2023-02-14T07:12:05.541Z,4.87
2023-02-14T07:14:36.527Z,4.92
2023-02-14T07:17:05.676Z,5.47
2023-02-14T07:19:35.086Z,4.88
2023-02-14T07:22:05.512Z,4.88
2023-02-14T07:24:34.605Z,4.78
2023-02-14T07:27:04.111Z,5.41
2023-02-14T07:29:33.591Z,5.49
2023-02-14T07:32:04.559Z,5.54
2023-02-14T07:34:34.268Z,5.62
2023-02-14T07:37:03.650Z,5.55
2023-02-14T07:39:33.650Z,5.63
2023-02-14T07:42:03.285Z,5.07
2023-02-14T07:44:32.291Z,5.63
2023-02-14T07:47:03.260Z,5.64
2023-02-14T07:49:32.731Z,6.02
2023-02-14T07:52:02.234Z,5.46
2023-02-14T07:54:31.472Z,5.49
2023-02-14T07:57:00.886Z,5.90
2023-02-14T07:59:30.251Z,5.60
2023-02-14T08:01:59.348Z,5.37
2023-02-14T08:04:32.874Z,5.56
2023-02-14T08:07:03.174Z,5.45
2023-02-14T08:09:32.563Z,6.09
2023-02-14T08:12:20.593Z,6.34
2023-02-14T08:14:49.835Z,6.09
2023-02-14T08:17:19.332Z,5.88
2023-02-14T08:19:50.030Z,5.65
2023-02-14T08:22:19.522Z,5.52
2023-02-14T08:24:48.944Z,5.85
2023-02-14T08:27:18.647Z,6.13
2023-02-14T08:29:47.817Z,5.88
2023-02-14T08:32:21.019Z,6.06
2023-02-14T08:34:52.223Z,5.78
2023-02-14T08:37:22.075Z,6.48
2023-02-14T08:39:52.154Z,6.26
2023-02-14T08:42:22.191Z,6.36
2023-02-14T08:44:52.867Z,5.73
2023-02-14T08:47:22.825Z,6.04
2023-02-14T08:49:54.247Z,6.42
2023-02-14T08:52:23.646Z,6.16
2023-02-14T08:54:53.096Z,5.86
2023-02-14T08:57:22.498Z,5.88
2023-02-14T08:59:52.248Z,6.13
2023-02-14T09:02:21.920Z,6.29
2023-02-14T09:04:51.464Z,6.32
2023-02-14T09:07:22.333Z,6.20
2023-02-14T09:09:51.478Z,6.20
2023-02-14T09:12:21.068Z,6.21
2023-02-14T09:14:50.966Z,6.83
2023-02-14T09:17:21.075Z,6.39
2023-02-14T09:19:50.680Z,5.93
2023-02-14T09:22:22.113Z,6.40
2023-02-14T09:24:51.633Z,6.35
2023-02-14T09:27:20.932Z,5.65
2023-02-14T09:29:50.374Z,5.79
2023-02-14T09:32:19.573Z,5.54
2023-02-14T09:34:49.202Z,6.11
2023-02-14T09:37:36.099Z,5.83
2023-02-14T09:40:08.006Z,5.80
2023-02-14T09:42:50.407Z,6.39
2023-02-14T09:45:22.946Z,6.36
2023-02-14T09:47:57.574Z,6.23
2023-02-14T09:50:31.670Z,6.47
2023-02-14T09:53:04.365Z,7.14
2023-02-14T09:55:44.494Z,6.44
2023-02-14T09:58:19.350Z,6.68
2023-02-14T10:01:01.238Z,5.86
2023-02-14T10:03:55.946Z,6.99
2023-02-14T10:06:39.985Z,6.62
2023-02-14T10:09:20.250Z,6.93
2023-02-14T10:11:51.919Z,6.24
2023-02-14T10:14:24.704Z,6.78
2023-02-14T10:16:57.490Z,6.76
2023-02-14T10:19:29.910Z,6.70
2023-02-14T10:22:02.526Z,6.45
2023-02-14T10:24:35.085Z,6.87
2023-02-14T10:27:14.466Z,6.74
2023-02-14T10:29:44.511Z,7.08
2023-02-14T10:32:16.872Z,7.14
2023-02-14T10:34:49.837Z,7.32
2023-02-14T10:37:42.459Z,7.20
2023-02-14T10:40:35.584Z,9.81
2023-02-14T10:43:18.112Z,10.88
2023-02-14T10:45:55.526Z,7.26
2023-02-14T10:48:32.687Z,7.79
2023-02-14T10:51:07.997Z,7.09
2023-02-14T10:53:45.617Z,7.40
2023-02-14T10:56:23.242Z,6.83
2023-02-14T10:58:57.214Z,6.81
2023-02-14T11:01:26.829Z,6.46
2023-02-14T11:04:03.772Z,6.78
2023-02-14T11:06:34.278Z,6.50
2023-02-14T11:09:04.546Z,9.61
2023-02-14T11:11:38.955Z,7.47
2023-02-14T11:14:24.028Z,6.91
2023-02-14T11:16:55.771Z,7.13
2023-02-14T11:19:28.369Z,7.72
2023-02-14T11:21:59.328Z,6.67
2023-02-14T11:24:33.795Z,5.48
2023-02-14T11:27:05.927Z,7.02
2023-02-14T11:29:43.435Z,9.22
2023-02-14T11:32:16.465Z,8.87
2023-02-14T11:34:52.878Z,9.64
2023-02-14T11:37:31.609Z,9.42
2023-02-14T11:40:02.767Z,7.28
2023-02-14T11:42:40.143Z,6.56
2023-02-14T11:45:28.960Z,6.79
2023-02-14T11:48:24.847Z,7.02
2023-02-14T11:51:04.456Z,6.88
2023-02-14T11:53:45.871Z,6.65
2023-02-14T11:56:16.813Z,6.45
2023-02-14T11:58:51.712Z,6.60
2023-02-14T12:01:27.648Z,6.36
2023-02-14T12:04:01.231Z,6.40
2023-02-14T12:06:32.554Z,6.67
2023-02-14T12:09:25.091Z,7.12
2023-02-14T12:11:57.694Z,6.09
2023-02-14T12:14:30.131Z,6.34
2023-02-14T12:17:06.050Z,7.36
2023-02-14T12:19:43.876Z,6.94
2023-02-14T12:22:18.360Z,6.51
2023-02-14T12:24:58.410Z,6.89
2023-02-14T12:27:31.728Z,7.14
2023-02-14T12:30:05.496Z,7.73
2023-02-14T12:32:36.657Z,6.86
2023-02-14T12:35:16.423Z,7.25
2023-02-14T12:38:04.390Z,7.29
2023-02-14T12:40:45.629Z,6.36
2023-02-14T12:43:34.648Z,6.77
2023-02-14T12:46:39.090Z,10.39
2023-02-14T12:49:33.228Z,8.19
2023-02-14T12:52:14.923Z,7.99
2023-02-14T12:55:00.235Z,6.78
2023-02-14T12:57:41.277Z,7.78
2023-02-14T13:00:23.412Z,6.97
2023-02-14T13:03:22.556Z,6.44
2023-02-14T13:06:01.894Z,6.06
2023-02-14T13:08:47.891Z,6.26
2023-02-14T13:11:30.251Z,6.57
2023-02-14T13:14:06.033Z,6.46
2023-02-14T13:16:42.926Z,5.76
2023-02-14T13:19:29.934Z,5.58
2023-02-14T13:22:02.568Z,6.46
2023-02-14T13:24:39.607Z,6.79
2023-02-14T13:27:14.220Z,6.17
2023-02-14T13:29:48.307Z,6.37
2023-02-14T13:32:22.414Z,6.61
2023-02-14T13:34:52.560Z,6.12
2023-02-14T13:37:27.254Z,6.22
2023-02-14T13:40:01.414Z,6.78
2023-02-14T13:42:58.573Z,6.29
2023-02-14T13:45:53.829Z,7.84
2023-02-14T13:48:25.845Z,6.56
2023-02-14T13:50:58.564Z,6.10
2023-02-14T13:53:38.579Z,5.99
2023-02-14T13:56:32.710Z,6.93
2023-02-14T13:59:05.538Z,7.35
2023-02-14T14:01:40.620Z,6.03
2023-02-14T14:04:38.132Z,5.66
2023-02-14T14:07:30.218Z,5.95
2023-02-14T14:10:03.279Z,5.89
2023-02-14T14:12:40.299Z,6.07
2023-02-14T14:15:20.533Z,5.65
2023-02-14T14:18:23.090Z,5.20
2023-02-14T14:20:52.661Z,4.31
2023-02-14T14:23:33.883Z,4.60
2023-02-14T14:26:25.127Z,5.04
2023-02-14T14:28:56.112Z,4.79
2023-02-14T14:31:25.885Z,4.55
2023-02-14T14:34:00.555Z,4.80
2023-02-14T14:36:30.195Z,4.61
2023-02-14T14:38:59.569Z,4.39
2023-02-14T14:41:32.727Z,4.57
2023-02-14T14:44:02.290Z,4.32
2023-02-14T14:46:32.483Z,4.47
2023-02-14T14:49:02.414Z,4.24
2023-02-14T14:51:35.343Z,4.33
2023-02-14T14:54:07.053Z,4.44
2023-02-14T14:56:47.103Z,4.27
2023-02-14T14:59:27.663Z,4.05
2023-02-14T15:01:57.482Z,3.88
2023-02-14T15:04:29.635Z,4.14
2023-02-14T15:07:18.613Z,4.20
2023-02-14T15:09:48.710Z,4.14
2023-02-14T15:12:41.781Z,4.17
2023-02-14T15:15:13.308Z,3.83
2023-02-14T15:17:44.750Z,2.26
2023-02-14T15:20:18.649Z,3.95
2023-02-14T15:22:50.897Z,4.15
2023-02-14T15:25:21.954Z,4.16
2023-02-14T15:27:52.640Z,3.48
2023-02-14T15:30:31.049Z,4.15
2023-02-14T15:33:01.709Z,4.01
2023-02-14T15:35:33.712Z,4.11
2023-02-14T15:38:07.366Z,4.07
2023-02-14T15:40:39.121Z,3.80
2023-02-14T15:43:25.044Z,4.02
2023-02-14T15:45:58.448Z,4.11
2023-02-14T15:48:30.394Z,3.96
2023-02-14T15:51:01.601Z,3.90
2023-02-14T15:53:41.376Z,3.73
2023-02-14T15:56:14.583Z,3.89
2023-02-14T15:58:45.689Z,3.92
2023-02-14T16:01:15.453Z,3.98
2023-02-14T16:03:52.132Z,3.73
2023-02-14T16:06:36.930Z,4.02
2023-02-14T16:09:09.241Z,4.22
2023-02-14T16:11:39.992Z,4.15
2023-02-14T16:14:30.790Z,4.34
2023-02-14T16:17:06.036Z,4.34
2023-02-14T16:19:38.393Z,4.40
2023-02-14T16:22:08.250Z,4.29
2023-02-14T16:24:38.302Z,4.71
2023-02-14T16:27:13.336Z,4.37
2023-02-14T16:29:43.874Z,4.53
2023-02-14T16:32:20.018Z,4.38
2023-02-14T16:34:49.904Z,4.47
2023-02-14T16:37:23.126Z,4.36
2023-02-14T16:39:57.850Z,4.43
2023-02-14T16:42:27.401Z,4.33
2023-02-14T16:44:58.975Z,4.31
2023-02-14T16:47:28.699Z,4.18
2023-02-14T16:49:58.154Z,4.02
2023-02-14T16:52:30.053Z,4.10
2023-02-14T16:54:59.755Z,3.91
2023-02-14T16:57:33.347Z,4.03
2023-02-14T17:00:07.022Z,3.33
2023-02-14T17:02:36.426Z,3.96
2023-02-14T17:05:05.991Z,3.98
2023-02-14T17:07:46.608Z,3.88
2023-02-14T17:10:21.531Z,3.70
2023-02-14T17:12:52.272Z,3.65
2023-02-14T17:15:25.092Z,3.67
2023-02-14T17:17:57.590Z,3.67
2023-02-14T17:20:26.764Z,3.47
2023-02-14T17:22:56.763Z,3.51
2023-02-14T17:25:26.874Z,3.61
2023-02-14T17:27:57.291Z,3.47
2023-02-14T17:30:28.865Z,1.70
2023-02-14T17:32:59.380Z,1.41
2023-02-14T17:35:29.034Z,1.37
2023-02-14T17:37:58.541Z,1.61
2023-02-14T17:40:29.020Z,1.61
2023-02-14T17:42:58.664Z,1.59
2023-02-14T17:45:29.721Z,1.49
2023-02-14T17:47:59.374Z,1.58
2023-02-14T17:50:28.831Z,1.57
2023-02-14T17:52:58.348Z,1.43
2023-02-14T17:55:30.136Z,1.43
2023-02-14T17:57:59.963Z,1.40
2023-02-14T18:00:30.578Z,1.38
2023-02-14T18:02:59.607Z,1.49
2023-02-14T18:05:29.272Z,1.52
2023-02-14T18:07:59.008Z,1.39
2023-02-14T18:10:28.526Z,1.61
2023-02-14T18:12:57.494Z,1.84
2023-02-14T18:15:27.937Z,1.87
2023-02-14T18:17:59.165Z,1.83
2023-02-14T18:20:28.296Z,1.82
2023-02-14T18:22:57.826Z,1.94
2023-02-14T18:25:27.493Z,1.85
2023-02-14T18:28:05.896Z,1.86
2023-02-14T18:30:36.039Z,1.61
2023-02-14T18:33:07.570Z,1.86
2023-02-14T18:35:37.078Z,2.02
2023-02-14T18:38:08.082Z,1.84
2023-02-14T18:40:38.572Z,1.95
2023-02-14T18:43:08.583Z,1.99
2023-02-14T18:45:39.265Z,1.88
2023-02-14T18:48:10.129Z,1.94
2023-02-14T18:50:39.503Z,1.73
2023-02-14T18:53:09.097Z,2.02
2023-02-14T18:55:38.847Z,1.89
2023-02-14T18:58:09.122Z,1.68
2023-02-14T19:00:38.516Z,1.69
2023-02-14T19:03:07.814Z,1.82
2023-02-14T19:05:40.248Z,1.95
2023-02-14T19:08:10.082Z,1.80
2023-02-14T19:10:39.584Z,1.55
2023-02-14T19:13:09.314Z,1.88
2023-02-14T19:15:39.025Z,1.33
2023-02-14T19:18:08.718Z,1.94
2023-02-14T19:20:39.730Z,1.62
2023-02-14T19:23:09.455Z,1.84
2023-02-14T19:25:38.933Z,1.80
2023-02-14T19:28:08.519Z,1.69
2023-02-14T19:30:38.305Z,1.48
2023-02-14T19:33:08.298Z,1.66
2023-02-14T19:35:39.504Z,1.37
2023-02-14T19:38:10.327Z,1.76
2023-02-14T19:40:45.142Z,1.58
2023-02-14T19:43:16.015Z,1.78
2023-02-14T19:45:46.317Z,1.72
2023-02-14T19:48:20.005Z,1.66
2023-02-14T19:50:51.128Z,1.63
2023-02-14T19:53:20.617Z,1.75
2023-02-14T19:55:52.494Z,1.45
2023-02-14T19:58:22.858Z,1.79
2023-02-14T20:00:58.794Z,1.81
2023-02-14T20:03:29.675Z,2.02
2023-02-14T20:06:00.821Z,1.90
2023-02-14T20:08:30.501Z,2.04
2023-02-14T20:11:00.956Z,2.01
2023-02-14T20:13:31.024Z,2.04
2023-02-14T20:16:01.984Z,2.09
2023-02-14T20:18:31.896Z,1.97
2023-02-14T20:21:05.412Z,2.02
2023-02-14T20:23:35.637Z,1.89
2023-02-14T20:26:05.316Z,1.93
2023-02-14T20:28:34.897Z,1.80
2023-02-14T20:31:08.820Z,1.38
2023-02-14T20:33:50.275Z,1.84
2023-02-14T20:36:21.736Z,1.54
2023-02-14T20:38:56.908Z,1.99
2023-02-14T20:41:27.703Z,1.85
2023-02-14T20:44:04.366Z,1.84
2023-02-14T20:46:34.739Z,1.60
2023-02-14T20:49:05.770Z,1.78
2023-02-14T20:51:37.760Z,1.90
2023-02-14T20:54:07.456Z,1.48
2023-02-14T20:56:39.733Z,1.71
2023-02-14T20:59:09.744Z,1.65
2023-02-14T21:01:39.690Z,1.47
2023-02-14T21:04:09.657Z,1.68
2023-02-14T21:06:40.307Z,1.66
2023-02-14T21:09:09.761Z,1.70
2023-02-14T21:11:39.370Z,1.51
2023-02-14T21:14:09.222Z,1.68
2023-02-14T21:16:40.373Z,1.53
2023-02-14T21:19:09.918Z,1.66
2023-02-14T21:21:40.980Z,1.57
2023-02-14T21:24:15.814Z,1.56
2023-02-14T21:26:46.058Z,1.64
2023-02-14T21:29:15.539Z,1.61
2023-02-14T21:31:45.167Z,1.48
2023-02-14T21:34:16.223Z,1.23
2023-02-14T21:36:46.950Z,1.36
2023-02-14T21:39:16.833Z,1.12
2023-02-14T21:41:46.234Z,1.48
2023-02-14T21:44:40.143Z,1.49
2023-02-14T21:47:09.290Z,1.50
2023-02-14T21:49:55.689Z,1.47
2023-02-14T21:52:26.086Z,1.67
2023-02-14T21:54:55.117Z,1.57
2023-02-14T21:57:24.492Z,1.16
2023-02-14T21:59:53.897Z,0.92
2023-02-14T22:02:23.245Z,1.43
2023-02-14T22:04:52.686Z,1.42
2023-02-14T22:07:22.150Z,1.17
2023-02-14T22:09:52.861Z,0.99
2023-02-14T22:12:22.736Z,1.33
2023-02-14T22:14:52.132Z,1.36
2023-02-14T22:17:21.344Z,1.26
2023-02-14T22:19:50.870Z,1.00
2023-02-14T22:22:20.239Z,1.10
2023-02-14T22:24:51.725Z,1.00
2023-02-14T22:27:40.046Z,0.85
2023-02-14T22:30:22.927Z,1.17
2023-02-14T22:32:53.520Z,1.20
2023-02-14T22:35:22.496Z,1.23
2023-02-14T22:38:38.316Z,1.33
2023-02-14T22:41:26.130Z,1.46
2023-02-14T22:43:57.431Z,1.27
2023-02-14T22:47:12.157Z,1.54
2023-02-14T22:49:43.480Z,1.63
2023-02-14T22:52:12.667Z,1.42
2023-02-14T22:54:41.860Z,1.58
2023-02-14T22:57:10.882Z,1.32
2023-02-14T22:59:41.409Z,1.46
2023-02-14T23:02:12.046Z,1.59
2023-02-14T23:04:41.630Z,1.50
2023-02-14T23:07:12.068Z,1.29
2023-02-14T23:09:41.073Z,1.31
2023-02-14T23:12:30.496Z,1.55
2023-02-14T23:15:18.461Z,1.19
2023-02-14T23:18:05.274Z,1.42
2023-02-14T23:20:51.956Z,1.33
2023-02-14T23:23:20.871Z,1.37
2023-02-14T23:25:50.026Z,1.58
2023-02-14T23:28:19.067Z,1.40
2023-02-14T23:30:49.381Z,1.37
2023-02-14T23:33:18.347Z,1.30
2023-02-14T23:35:47.244Z,1.28
2023-02-14T23:38:16.173Z,1.32
2023-02-14T23:41:02.822Z,1.30
2023-02-14T23:43:31.795Z,1.26
2023-02-14T23:46:02.475Z,2.66
2023-02-14T23:48:31.828Z,3.14
2023-02-14T23:51:01.498Z,3.33
2023-02-14T23:53:30.722Z,3.32
2023-02-14T23:56:03.459Z,3.24
2023-02-14T23:58:32.599Z,3.07
